Amoy Dream — VRHD5 — position and weather

sailwx.info

Track history (hours):
 
Tides and Currents Weather Stations Pressure Air Temp Water Temp Dewpoint Dewpoint Depression Visibility Wind Speed Wind Dir Waves Ship Positions

Amoy Dream

Last reported at 2014-Jul-25 13:32 UTC. Time now 2014-Jul-25 13:44 UTC.
Position N 38°59' E 117°44'.

Length 190 m; draft 9.2 m.

Type: Cargo ship. MMSI: 477826600.

Date/timePositionNaut miles runAvg speedWind from/ knotsBaromVisibWave heightAir tempDewpointWater temp
2014-Jul-25 13:32N 38°59' E 117°44'1 0.5
2014-Jul-25 12:33N 38°59' E 117°45'6 6.2
2014-Jul-25 11:33N 38°57' E 117°52'9 9.5
2014-Jul-25 10:33N 38°57' E 118°05'2 1.7
2014-Jul-25 09:25N 38°58' E 118°07'0 0.1
2014-Jul-25 08:31N 38°58' E 118°07'0 0.1
2014-Jul-25 07:13N 38°58' E 118°06'0 0.0
2014-Jul-25 06:31N 38°58' E 118°06'0 0.0
2014-Jul-25 05:25N 38°58' E 118°06'0 0.0
2014-Jul-25 04:28N 38°58' E 118°06'0 0.0
2014-Jul-25 03:31N 38°58' E 118°06'0 0.0
2014-Jul-25 02:31N 38°58' E 118°06'0 0.0
2014-Jul-25 01:31N 38°58' E 118°06'0 0.1
2014-Jul-25 00:28N 38°58' E 118°06'0 0.1
2014-Jul-24 23:28N 38°58' E 118°06'0 0.0
2014-Jul-24 22:28N 38°58' E 118°06'0 0.0
2014-Jul-24 21:31N 38°58' E 118°07'0 0.0
2014-Jul-24 20:22N 38°58' E 118°07'0 0.1
2014-Jul-24 19:28N 38°58' E 118°06'0 0.1
2014-Jul-24 18:31N 38°58' E 118°06'0 0.1
2014-Jul-24 17:31N 38°58' E 118°06'0 0.1
2014-Jul-24 16:31N 38°58' E 118°06'0 0.0
2014-Jul-24 15:31N 38°58' E 118°06'0 0.0
2014-Jul-24 14:31N 38°58' E 118°06'0 0.0
2014-Jul-24 13:31N 38°58' E 118°06'0 0.0
2014-Jul-24 12:31N 38°58' E 118°06'0 0.0
2014-Jul-24 09:25N 38°58' E 118°06'0 0.1
2014-Jul-24 07:31N 38°58' E 118°06'0 0.0
2014-Jul-24 06:25N 38°58' E 118°06'0 0.1
2014-Jul-24 05:25N 38°58' E 118°06'0 0.0
2014-Jul-24 04:28N 38°58' E 118°06'0 0.0
2014-Jul-24 03:31N 38°58' E 118°06'0 0.0
2014-Jul-24 01:25N 38°58' E 118°06'0 0.0
2014-Jul-24 00:31N 38°58' E 118°06'0 0.2
2014-Jul-23 23:25N 38°58' E 118°06'0 0.0
2014-Jul-23 22:25N 38°58' E 118°07'0 0.0
2014-Jul-23 21:28N 38°58' E 118°07'0 0.0
2014-Jul-23 20:31N 38°58' E 118°07'0 0.0
2014-Jul-23 18:28N 38°58' E 118°07'0 0.0
2014-Jul-23 17:13N 38°58' E 118°07'0 0.0
2014-Jul-23 15:04N 38°58' E 118°06'0 0.0
2014-Jul-23 14:31N 38°58' E 118°06'0 0.0
2014-Jul-23 13:31N 38°58' E 118°06'0 0.0
2014-Jul-23 12:31N 38°58' E 118°06'0 0.0
2014-Jul-23 11:31N 38°58' E 118°06'0 0.1
2014-Jul-23 10:31N 38°58' E 118°07'0 0.0
2014-Jul-23 09:31N 38°58' E 118°07'0 0.0
2014-Jul-23 08:31N 38°58' E 118°07'0 0.0
2014-Jul-23 07:31N 38°58' E 118°07'0 0.0
2014-Jul-23 05:04N 38°58' E 118°07'0 0.1
2014-Jul-23 04:19N 38°58' E 118°06'0 0.1
2014-Jul-23 03:25N 38°58' E 118°06'0 0.0
2014-Jul-23 02:13N 38°58' E 118°06'0 0.0
2014-Jul-23 01:31N 38°58' E 118°06'0 0.0
2014-Jul-23 00:31N 38°58' E 118°06'0 0.1
2014-Jul-22 23:25N 38°58' E 118°06'0 0.1
2014-Jul-22 21:31N 38°58' E 118°07'0 0.0
2014-Jul-22 20:25N 38°58' E 118°07'0 0.0
2014-Jul-22 19:28N 38°58' E 118°07'0 0.0
2014-Jul-22 18:31N 38°58' E 118°07'0 0.0
2014-Jul-22 15:31N 38°58' E 118°07'0 0.1
2014-Jul-22 14:22N 38°58' E 118°06'0 0.0
2014-Jul-22 13:19N 38°58' E 118°06'0 0.1
2014-Jul-22 12:28N 38°58' E 118°06'0 0.0
2014-Jul-22 11:31N 38°58' E 118°06'0 0.1
2014-Jul-22 10:31N 38°58' E 118°06'0 0.1
2014-Jul-22 09:31N 38°58' E 118°06'0 0.0
2014-Jul-22 08:25N 38°58' E 118°06'0 0.1
2014-Jul-22 07:28N 38°58' E 118°07'0 0.0
2014-Jul-22 05:16N 38°58' E 118°07'0 0.2
2014-Jul-22 04:28N 38°58' E 118°06'0 0.1
2014-Jul-22 03:31N 38°58' E 118°06'0 0.0
2014-Jul-22 02:31N 38°58' E 118°06'0 0.0
2014-Jul-22 01:31N 38°58' E 118°06'0 0.0
2014-Jul-22 00:28N 38°58' E 118°06'0 0.0
2014-Jul-21 23:13N 38°58' E 118°06'0 0.0
2014-Jul-21 22:28N 38°58' E 118°06'0 0.1
2014-Jul-21 20:28N 38°58' E 118°07'0 0.0
2014-Jul-21 20:16N 38°58' E 118°07'0 0.0
2014-Jul-21 19:28N 38°58' E 118°07'0 0.0
2014-Jul-21 18:28N 38°58' E 118°07'0 0.1
2014-Jul-21 17:28N 38°58' E 118°06'0 0.1
2014-Jul-21 16:28N 38°58' E 118°06'0 0.1
2014-Jul-21 15:25N 38°58' E 118°06'0 0.0
2014-Jul-21 14:28N 38°58' E 118°06'0 0.0
2014-Jul-21 13:28N 38°58' E 118°06'0 0.0
2014-Jul-21 12:31N 38°58' E 118°06'0 0.0
2014-Jul-21 11:31N 38°58' E 118°06'0 0.0
2014-Jul-21 10:28N 38°58' E 118°06'0 0.1
2014-Jul-21 09:28N 38°58' E 118°06'0 0.1
2014-Jul-21 08:31N 38°58' E 118°06'0 0.0
2014-Jul-21 07:31N 38°58' E 118°06'0 0.0
2014-Jul-21 06:28N 38°58' E 118°06'0 0.0
2014-Jul-21 05:19N 38°58' E 118°07'0 0.0
2014-Jul-21 04:28N 38°58' E 118°07'0 0.1
2014-Jul-21 03:13N 38°58' E 118°07'0 0.2
2014-Jul-21 02:31N 38°58' E 118°06'0 0.0
2014-Jul-21 00:31N 38°58' E 118°06'0 0.1
2014-Jul-20 23:32N 38°58' E 118°06'5 5.4
2014-Jul-20 22:34N 38°54' E 118°11'1313.0
2014-Jul-20 21:33N 38°51' E 118°27'7710.9
2014-Jul-20 14:33N 39°07' E 120°04'1211.6
2014-Jul-20 13:32N 39°13' E 120°17'1211.7
2014-Jul-20 12:33N 39°19' E 120°30'8612.2
2014-Jul-20 05:30N 40°18' E 121°51'9 9.6
2014-Jul-20 04:33N 40°17' E 122°03'3 2.9
2014-Jul-20 03:31N 40°15' E 122°06'0 0.0
2014-Jul-20 02:31N 40°15' E 122°06'0 0.0
2014-Jul-20 01:31N 40°15' E 122°06'0 0.0
2014-Jul-20 00:31N 40°15' E 122°06'0 0.0
2014-Jul-19 23:31N 40°15' E 122°06'0 0.0
2014-Jul-19 22:31N 40°15' E 122°06'0 0.0
2014-Jul-19 21:31N 40°15' E 122°06'0 0.0
2014-Jul-19 20:31N 40°15' E 122°06'0 0.0
2014-Jul-19 19:31N 40°15' E 122°06'0 0.0
2014-Jul-19 18:31N 40°15' E 122°06'0 0.0
2014-Jul-19 17:31N 40°15' E 122°06'0 0.0
2014-Jul-19 16:31N 40°15' E 122°06'0 0.0
2014-Jul-19 15:31N 40°15' E 122°06'0 0.0
2014-Jul-19 14:31N 40°15' E 122°06'0 0.0
2014-Jul-19 13:31N 40°15' E 122°06'0 0.0
2014-Jul-19 12:31N 40°15' E 122°06'0 0.0
2014-Jul-19 11:31N 40°15' E 122°06'0 0.0
2014-Jul-19 10:31N 40°15' E 122°06'0 0.0
2014-Jul-19 09:31N 40°15' E 122°06'0 0.0
2014-Jul-19 08:31N 40°15' E 122°06'0 0.0
2014-Jul-19 07:31N 40°15' E 122°06'0 0.0
2014-Jul-19 06:31N 40°15' E 122°06'0 0.0
2014-Jul-19 05:31N 40°15' E 122°06'0 0.0
2014-Jul-19 04:31N 40°15' E 122°06'0 0.0
2014-Jul-19 03:31N 40°15' E 122°06'0 0.0
2014-Jul-19 02:31N 40°15' E 122°06'0 0.0
2014-Jul-19 01:31N 40°15' E 122°06'0 0.0
2014-Jul-19 00:31N 40°15' E 122°06'0 0.0
2014-Jul-18 23:31N 40°15' E 122°06'0 0.0
2014-Jul-18 22:25N 40°15' E 122°06'0 0.0
2014-Jul-18 21:31N 40°15' E 122°06'0 0.0
2014-Jul-18 20:31N 40°15' E 122°06'0 0.0
2014-Jul-18 19:31N 40°15' E 122°06'0 0.0
2014-Jul-18 18:31N 40°15' E 122°06'0 0.0
2014-Jul-18 17:31N 40°15' E 122°06'0 0.0
2014-Jul-18 16:31N 40°15' E 122°06'0 0.0
2014-Jul-18 15:31N 40°15' E 122°06'0 0.0
2014-Jul-18 14:25N 40°15' E 122°06'0 0.0
2014-Jul-18 13:31N 40°15' E 122°06'0 0.0
2014-Jul-18 12:31N 40°15' E 122°06'0 0.0
2014-Jul-18 11:31N 40°15' E 122°06'0 0.0
2014-Jul-18 10:31N 40°15' E 122°06'0 0.0
2014-Jul-18 09:31N 40°15' E 122°06'0 0.0
2014-Jul-18 08:31N 40°15' E 122°06'0 0.0
2014-Jul-18 07:31N 40°15' E 122°06'0 0.0
2014-Jul-18 06:31N 40°15' E 122°06'0 0.0
2014-Jul-18 05:31N 40°15' E 122°06'0 0.0
2014-Jul-18 04:31N 40°15' E 122°06'0 0.0
2014-Jul-18 03:31N 40°15' E 122°06'0 0.0
2014-Jul-18 02:31N 40°15' E 122°06'0 0.0
2014-Jul-18 01:31N 40°15' E 122°06'0 0.0
2014-Jul-18 00:31N 40°15' E 122°06'0 0.0
2014-Jul-17 23:31N 40°15' E 122°06'0 0.0
2014-Jul-17 22:31N 40°15' E 122°06'0 0.0
2014-Jul-17 21:31N 40°15' E 122°06'0 0.0
2014-Jul-17 20:25N 40°15' E 122°06'0 0.0
2014-Jul-17 19:31N 40°15' E 122°06'0 0.0
2014-Jul-17 18:31N 40°15' E 122°06'0 0.0
2014-Jul-17 17:31N 40°15' E 122°06'0 0.0
2014-Jul-17 16:31N 40°15' E 122°06'0 0.0
2014-Jul-17 15:31N 40°15' E 122°06'0 0.0
2014-Jul-17 14:31N 40°15' E 122°06'0 0.0
2014-Jul-17 13:31N 40°15' E 122°06'0 0.0
2014-Jul-17 12:31N 40°15' E 122°06'0 0.0
2014-Jul-17 11:31N 40°15' E 122°06'0 0.0
2014-Jul-17 10:31N 40°15' E 122°06'0 0.0
2014-Jul-17 09:31N 40°15' E 122°06'0 0.0
2014-Jul-17 08:31N 40°15' E 122°06'0 0.0
2014-Jul-17 07:31N 40°15' E 122°06'0 0.0
2014-Jul-17 06:31N 40°15' E 122°06'0 0.0
2014-Jul-17 05:31N 40°15' E 122°06'0 0.0
2014-Jul-17 04:25N 40°15' E 122°06'0 0.0
2014-Jul-17 03:31N 40°15' E 122°06'0 0.0
2014-Jul-17 02:31N 40°15' E 122°06'0 0.0
2014-Jul-17 01:25N 40°15' E 122°06'0 0.0
2014-Jul-17 00:31N 40°15' E 122°06'0 0.0
2014-Jul-16 23:31N 40°15' E 122°06'0 0.0
2014-Jul-16 22:31N 40°15' E 122°06'0 0.0
2014-Jul-16 21:31N 40°15' E 122°06'0 0.0
2014-Jul-16 20:31N 40°15' E 122°06'0 0.0
2014-Jul-16 19:31N 40°15' E 122°06'0 0.0
2014-Jul-16 18:31N 40°15' E 122°06'0 0.0
2014-Jul-16 17:31N 40°15' E 122°06'0 0.0
2014-Jul-16 16:31N 40°15' E 122°06'0 0.0
2014-Jul-16 15:31N 40°15' E 122°06'0 0.0
2014-Jul-16 14:25N 40°15' E 122°06'0 0.0
2014-Jul-16 13:31N 40°15' E 122°06'0 0.0
2014-Jul-16 12:31N 40°15' E 122°06'0 0.0
2014-Jul-16 11:31N 40°15' E 122°06'0 0.0
2014-Jul-16 10:31N 40°15' E 122°06'0 0.0
2014-Jul-16 09:31N 40°15' E 122°06'0 0.0
2014-Jul-16 08:31N 40°15' E 122°06'0 0.0
2014-Jul-16 07:25N 40°15' E 122°06'0 0.0
2014-Jul-16 06:31N 40°15' E 122°06'0 0.0
2014-Jul-16 05:31N 40°15' E 122°06'0 0.0
2014-Jul-16 04:31N 40°15' E 122°06'0 0.0
2014-Jul-16 03:31N 40°15' E 122°06'0 0.0
2014-Jul-16 02:31N 40°15' E 122°06'0 0.0
2014-Jul-16 01:31N 40°15' E 122°06'0 0.0
2014-Jul-16 00:31N 40°15' E 122°06'0 0.0
2014-Jul-15 23:31N 40°15' E 122°06'0 0.0
2014-Jul-15 22:31N 40°15' E 122°06'0 0.0
2014-Jul-15 21:31N 40°15' E 122°06'0 0.0
2014-Jul-15 20:31N 40°15' E 122°06'0 0.0
2014-Jul-15 19:31N 40°15' E 122°06'0 0.0
2014-Jul-15 18:25N 40°15' E 122°06'0 0.0
2014-Jul-15 17:31N 40°15' E 122°06'0 0.0
2014-Jul-15 16:31N 40°15' E 122°06'0 0.0
2014-Jul-15 15:31N 40°15' E 122°06'0 0.0
2014-Jul-15 14:31N 40°15' E 122°06'  
Track history (hours):
 
Tides and Currents Weather Stations Pressure Air Temp Water Temp Dewpoint Dewpoint Depression Visibility Wind Speed Wind Dir Waves Ship Positions

Amoy Dream

Last reported at 2014-Jul-25 13:32 UTC. Time now 2014-Jul-25 13:44 UTC.
Position N 38°59' E 117°44'.

Length 190 m; draft 9.2 m.

Type: Cargo ship. MMSI: 477826600.

Date/timePositionNaut miles runAvg speedWind from/ knotsBaromVisibWave heightAir tempDewpointWater temp
2014-Jul-25 13:32N 38°59' E 117°44'1 0.5
2014-Jul-25 12:33N 38°59' E 117°45'6 6.2
2014-Jul-25 11:33N 38°57' E 117°52'9 9.5
2014-Jul-25 10:33N 38°57' E 118°05'2 1.7
2014-Jul-25 09:25N 38°58' E 118°07'0 0.1
2014-Jul-25 08:31N 38°58' E 118°07'0 0.1
2014-Jul-25 07:13N 38°58' E 118°06'0 0.0
2014-Jul-25 06:31N 38°58' E 118°06'0 0.0
2014-Jul-25 05:25N 38°58' E 118°06'0 0.0
2014-Jul-25 04:28N 38°58' E 118°06'0 0.0
2014-Jul-25 03:31N 38°58' E 118°06'0 0.0
2014-Jul-25 02:31N 38°58' E 118°06'0 0.0
2014-Jul-25 01:31N 38°58' E 118°06'0 0.1
2014-Jul-25 00:28N 38°58' E 118°06'0 0.1
2014-Jul-24 23:28N 38°58' E 118°06'0 0.0
2014-Jul-24 22:28N 38°58' E 118°06'0 0.0
2014-Jul-24 21:31N 38°58' E 118°07'0 0.0
2014-Jul-24 20:22N 38°58' E 118°07'0 0.1
2014-Jul-24 19:28N 38°58' E 118°06'0 0.1
2014-Jul-24 18:31N 38°58' E 118°06'0 0.1
2014-Jul-24 17:31N 38°58' E 118°06'0 0.1
2014-Jul-24 16:31N 38°58' E 118°06'0 0.0
2014-Jul-24 15:31N 38°58' E 118°06'0 0.0
2014-Jul-24 14:31N 38°58' E 118°06'0 0.0
2014-Jul-24 13:31N 38°58' E 118°06'0 0.0
2014-Jul-24 12:31N 38°58' E 118°06'0 0.0
2014-Jul-24 09:25N 38°58' E 118°06'0 0.1
2014-Jul-24 07:31N 38°58' E 118°06'0 0.0
2014-Jul-24 06:25N 38°58' E 118°06'0 0.1
2014-Jul-24 05:25N 38°58' E 118°06'0 0.0
2014-Jul-24 04:28N 38°58' E 118°06'0 0.0
2014-Jul-24 03:31N 38°58' E 118°06'0 0.0
2014-Jul-24 01:25N 38°58' E 118°06'0 0.0
2014-Jul-24 00:31N 38°58' E 118°06'0 0.2
2014-Jul-23 23:25N 38°58' E 118°06'0 0.0
2014-Jul-23 22:25N 38°58' E 118°07'0 0.0
2014-Jul-23 21:28N 38°58' E 118°07'0 0.0
2014-Jul-23 20:31N 38°58' E 118°07'0 0.0
2014-Jul-23 18:28N 38°58' E 118°07'0 0.0
2014-Jul-23 17:13N 38°58' E 118°07'0 0.0
2014-Jul-23 15:04N 38°58' E 118°06'0 0.0
2014-Jul-23 14:31N 38°58' E 118°06'0 0.0
2014-Jul-23 13:31N 38°58' E 118°06'0 0.0
2014-Jul-23 12:31N 38°58' E 118°06'0 0.0
2014-Jul-23 11:31N 38°58' E 118°06'0 0.1
2014-Jul-23 10:31N 38°58' E 118°07'0 0.0
2014-Jul-23 09:31N 38°58' E 118°07'0 0.0
2014-Jul-23 08:31N 38°58' E 118°07'0 0.0
2014-Jul-23 07:31N 38°58' E 118°07'0 0.0
2014-Jul-23 05:04N 38°58' E 118°07'0 0.1
2014-Jul-23 04:19N 38°58' E 118°06'0 0.1
2014-Jul-23 03:25N 38°58' E 118°06'0 0.0
2014-Jul-23 02:13N 38°58' E 118°06'0 0.0
2014-Jul-23 01:31N 38°58' E 118°06'0 0.0
2014-Jul-23 00:31N 38°58' E 118°06'0 0.1
2014-Jul-22 23:25N 38°58' E 118°06'0 0.1
2014-Jul-22 21:31N 38°58' E 118°07'0 0.0
2014-Jul-22 20:25N 38°58' E 118°07'0 0.0
2014-Jul-22 19:28N 38°58' E 118°07'0 0.0
2014-Jul-22 18:31N 38°58' E 118°07'0 0.0
2014-Jul-22 15:31N 38°58' E 118°07'0 0.1
2014-Jul-22 14:22N 38°58' E 118°06'0 0.0
2014-Jul-22 13:19N 38°58' E 118°06'0 0.1
2014-Jul-22 12:28N 38°58' E 118°06'0 0.0
2014-Jul-22 11:31N 38°58' E 118°06'0 0.1
2014-Jul-22 10:31N 38°58' E 118°06'0 0.1
2014-Jul-22 09:31N 38°58' E 118°06'0 0.0
2014-Jul-22 08:25N 38°58' E 118°06'0 0.1
2014-Jul-22 07:28N 38°58' E 118°07'0 0.0
2014-Jul-22 05:16N 38°58' E 118°07'0 0.2
2014-Jul-22 04:28N 38°58' E 118°06'0 0.1
2014-Jul-22 03:31N 38°58' E 118°06'0 0.0
2014-Jul-22 02:31N 38°58' E 118°06'0 0.0
2014-Jul-22 01:31N 38°58' E 118°06'0 0.0
2014-Jul-22 00:28N 38°58' E 118°06'0 0.0
2014-Jul-21 23:13N 38°58' E 118°06'0 0.0
2014-Jul-21 22:28N 38°58' E 118°06'0 0.1
2014-Jul-21 20:28N 38°58' E 118°07'0 0.0
2014-Jul-21 20:16N 38°58' E 118°07'0 0.0
2014-Jul-21 19:28N 38°58' E 118°07'0 0.0
2014-Jul-21 18:28N 38°58' E 118°07'0 0.1
2014-Jul-21 17:28N 38°58' E 118°06'0 0.1
2014-Jul-21 16:28N 38°58' E 118°06'0 0.1
2014-Jul-21 15:25N 38°58' E 118°06'0 0.0
2014-Jul-21 14:28N 38°58' E 118°06'0 0.0
2014-Jul-21 13:28N 38°58' E 118°06'0 0.0
2014-Jul-21 12:31N 38°58' E 118°06'0 0.0
2014-Jul-21 11:31N 38°58' E 118°06'0 0.0
2014-Jul-21 10:28N 38°58' E 118°06'0 0.1
2014-Jul-21 09:28N 38°58' E 118°06'0 0.1
2014-Jul-21 08:31N 38°58' E 118°06'0 0.0
2014-Jul-21 07:31N 38°58' E 118°06'0 0.0
2014-Jul-21 06:28N 38°58' E 118°06'0 0.0
2014-Jul-21 05:19N 38°58' E 118°07'0 0.0
2014-Jul-21 04:28N 38°58' E 118°07'0 0.1
2014-Jul-21 03:13N 38°58' E 118°07'0 0.2
2014-Jul-21 02:31N 38°58' E 118°06'0 0.0
2014-Jul-21 00:31N 38°58' E 118°06'0 0.1
2014-Jul-20 23:32N 38°58' E 118°06'5 5.4
2014-Jul-20 22:34N 38°54' E 118°11'1313.0
2014-Jul-20 21:33N 38°51' E 118°27'7710.9
2014-Jul-20 14:33N 39°07' E 120°04'1211.6
2014-Jul-20 13:32N 39°13' E 120°17'1211.7
2014-Jul-20 12:33N 39°19' E 120°30'8612.2
2014-Jul-20 05:30N 40°18' E 121°51'9 9.6
2014-Jul-20 04:33N 40°17' E 122°03'3 2.9
2014-Jul-20 03:31N 40°15' E 122°06'0 0.0
2014-Jul-20 02:31N 40°15' E 122°06'0 0.0
2014-Jul-20 01:31N 40°15' E 122°06'0 0.0
2014-Jul-20 00:31N 40°15' E 122°06'0 0.0
2014-Jul-19 23:31N 40°15' E 122°06'0 0.0
2014-Jul-19 22:31N 40°15' E 122°06'0 0.0
2014-Jul-19 21:31N 40°15' E 122°06'0 0.0
2014-Jul-19 20:31N 40°15' E 122°06'0 0.0
2014-Jul-19 19:31N 40°15' E 122°06'0 0.0
2014-Jul-19 18:31N 40°15' E 122°06'0 0.0
2014-Jul-19 17:31N 40°15' E 122°06'0 0.0
2014-Jul-19 16:31N 40°15' E 122°06'0 0.0
2014-Jul-19 15:31N 40°15' E 122°06'0 0.0
2014-Jul-19 14:31N 40°15' E 122°06'0 0.0
2014-Jul-19 13:31N 40°15' E 122°06'0 0.0
2014-Jul-19 12:31N 40°15' E 122°06'0 0.0
2014-Jul-19 11:31N 40°15' E 122°06'0 0.0
2014-Jul-19 10:31N 40°15' E 122°06'0 0.0
2014-Jul-19 09:31N 40°15' E 122°06'0 0.0
2014-Jul-19 08:31N 40°15' E 122°06'0 0.0
2014-Jul-19 07:31N 40°15' E 122°06'0 0.0
2014-Jul-19 06:31N 40°15' E 122°06'0 0.0
2014-Jul-19 05:31N 40°15' E 122°06'0 0.0
2014-Jul-19 04:31N 40°15' E 122°06'0 0.0
2014-Jul-19 03:31N 40°15' E 122°06'0 0.0
2014-Jul-19 02:31N 40°15' E 122°06'0 0.0
2014-Jul-19 01:31N 40°15' E 122°06'0 0.0
2014-Jul-19 00:31N 40°15' E 122°06'0 0.0
2014-Jul-18 23:31N 40°15' E 122°06'0 0.0
2014-Jul-18 22:25N 40°15' E 122°06'0 0.0
2014-Jul-18 21:31N 40°15' E 122°06'0 0.0
2014-Jul-18 20:31N 40°15' E 122°06'0 0.0
2014-Jul-18 19:31N 40°15' E 122°06'0 0.0
2014-Jul-18 18:31N 40°15' E 122°06'0 0.0
2014-Jul-18 17:31N 40°15' E 122°06'0 0.0
2014-Jul-18 16:31N 40°15' E 122°06'0 0.0
2014-Jul-18 15:31N 40°15' E 122°06'0 0.0
2014-Jul-18 14:25N 40°15' E 122°06'0 0.0
2014-Jul-18 13:31N 40°15' E 122°06'0 0.0
2014-Jul-18 12:31N 40°15' E 122°06'0 0.0
2014-Jul-18 11:31N 40°15' E 122°06'0 0.0
2014-Jul-18 10:31N 40°15' E 122°06'0 0.0
2014-Jul-18 09:31N 40°15' E 122°06'0 0.0
2014-Jul-18 08:31N 40°15' E 122°06'0 0.0
2014-Jul-18 07:31N 40°15' E 122°06'0 0.0
2014-Jul-18 06:31N 40°15' E 122°06'0 0.0
2014-Jul-18 05:31N 40°15' E 122°06'0 0.0
2014-Jul-18 04:31N 40°15' E 122°06'0 0.0
2014-Jul-18 03:31N 40°15' E 122°06'0 0.0
2014-Jul-18 02:31N 40°15' E 122°06'0 0.0
2014-Jul-18 01:31N 40°15' E 122°06'0 0.0
2014-Jul-18 00:31N 40°15' E 122°06'0 0.0
2014-Jul-17 23:31N 40°15' E 122°06'0 0.0
2014-Jul-17 22:31N 40°15' E 122°06'0 0.0
2014-Jul-17 21:31N 40°15' E 122°06'0 0.0
2014-Jul-17 20:25N 40°15' E 122°06'0 0.0
2014-Jul-17 19:31N 40°15' E 122°06'0 0.0
2014-Jul-17 18:31N 40°15' E 122°06'0 0.0
2014-Jul-17 17:31N 40°15' E 122°06'0 0.0
2014-Jul-17 16:31N 40°15' E 122°06'0 0.0
2014-Jul-17 15:31N 40°15' E 122°06'0 0.0
2014-Jul-17 14:31N 40°15' E 122°06'0 0.0
2014-Jul-17 13:31N 40°15' E 122°06'0 0.0
2014-Jul-17 12:31N 40°15' E 122°06'0 0.0
2014-Jul-17 11:31N 40°15' E 122°06'0 0.0
2014-Jul-17 10:31N 40°15' E 122°06'0 0.0
2014-Jul-17 09:31N 40°15' E 122°06'0 0.0
2014-Jul-17 08:31N 40°15' E 122°06'0 0.0
2014-Jul-17 07:31N 40°15' E 122°06'0 0.0
2014-Jul-17 06:31N 40°15' E 122°06'0 0.0
2014-Jul-17 05:31N 40°15' E 122°06'0 0.0
2014-Jul-17 04:25N 40°15' E 122°06'0 0.0
2014-Jul-17 03:31N 40°15' E 122°06'0 0.0
2014-Jul-17 02:31N 40°15' E 122°06'0 0.0
2014-Jul-17 01:25N 40°15' E 122°06'0 0.0
2014-Jul-17 00:31N 40°15' E 122°06'0 0.0
2014-Jul-16 23:31N 40°15' E 122°06'0 0.0
2014-Jul-16 22:31N 40°15' E 122°06'0 0.0
2014-Jul-16 21:31N 40°15' E 122°06'0 0.0
2014-Jul-16 20:31N 40°15' E 122°06'0 0.0
2014-Jul-16 19:31N 40°15' E 122°06'0 0.0
2014-Jul-16 18:31N 40°15' E 122°06'0 0.0
2014-Jul-16 17:31N 40°15' E 122°06'0 0.0
2014-Jul-16 16:31N 40°15' E 122°06'0 0.0
2014-Jul-16 15:31N 40°15' E 122°06'0 0.0
2014-Jul-16 14:25N 40°15' E 122°06'0 0.0
2014-Jul-16 13:31N 40°15' E 122°06'0 0.0
2014-Jul-16 12:31N 40°15' E 122°06'0 0.0
2014-Jul-16 11:31N 40°15' E 122°06'0 0.0
2014-Jul-16 10:31N 40°15' E 122°06'0 0.0
2014-Jul-16 09:31N 40°15' E 122°06'0 0.0
2014-Jul-16 08:31N 40°15' E 122°06'0 0.0
2014-Jul-16 07:25N 40°15' E 122°06'0 0.0
2014-Jul-16 06:31N 40°15' E 122°06'0 0.0
2014-Jul-16 05:31N 40°15' E 122°06'0 0.0
2014-Jul-16 04:31N 40°15' E 122°06'0 0.0
2014-Jul-16 03:31N 40°15' E 122°06'0 0.0
2014-Jul-16 02:31N 40°15' E 122°06'0 0.0
2014-Jul-16 01:31N 40°15' E 122°06'0 0.0
2014-Jul-16 00:31N 40°15' E 122°06'0 0.0
2014-Jul-15 23:31N 40°15' E 122°06'0 0.0
2014-Jul-15 22:31N 40°15' E 122°06'0 0.0
2014-Jul-15 21:31N 40°15' E 122°06'0 0.0
2014-Jul-15 20:31N 40°15' E 122°06'0 0.0
2014-Jul-15 19:31N 40°15' E 122°06'0 0.0
2014-Jul-15 18:25N 40°15' E 122°06'0 0.0
2014-Jul-15 17:31N 40°15' E 122°06'0 0.0
2014-Jul-15 16:31N 40°15' E 122°06'0 0.0
2014-Jul-15 15:31N 40°15' E 122°06'0 0.0
2014-Jul-15 14:31N 40°15' E 122°06'  

Dump ship's entire track history